sensor_id;sensor_type;location;lat;lon;timestamp;temperature;humidity
6664;DHT22;58749;48.022;10.922;2022-10-31T00:01:37;13.90;99.90
6664;DHT22;58749;48.022;10.922;2022-10-31T00:04:06;13.80;99.90
6664;DHT22;58749;48.022;10.922;2022-10-31T00:06:34;13.80;99.90
6664;DHT22;58749;48.022;10.922;2022-10-31T00:09:04;13.80;99.90
6664;DHT22;58749;48.022;10.922;2022-10-31T00:11:32;13.80;99.90
6664;DHT22;58749;48.022;10.922;2022-10-31T00:14:00;13.80;99.90
6664;DHT22;58749;48.022;10.922;2022-10-31T00:16:30;13.80;99.90
6664;DHT22;58749;48.022;10.922;2022-10-31T00:18:59;13.80;99.90
6664;DHT22;58749;48.022;10.922;2022-10-31T00:21:29;13.80;99.90
6664;DHT22;58749;48.022;10.922;2022-10-31T00:23:58;13.70;99.90
6664;DHT22;58749;48.022;10.922;2022-10-31T00:26:28;13.70;99.90
6664;DHT22;58749;48.022;10.922;2022-10-31T00:28:56;13.70;99.90
6664;DHT22;58749;48.022;10.922;2022-10-31T00:31:25;13.60;99.90
6664;DHT22;58749;48.022;10.922;2022-10-31T00:33:53;13.70;99.90
6664;DHT22;58749;48.022;10.922;2022-10-31T00:36:21;13.70;99.90
6664;DHT22;58749;48.022;10.922;2022-10-31T00:38:49;13.70;99.90
6664;DHT22;58749;48.022;10.922;2022-10-31T00:41:17;13.70;99.90
6664;DHT22;58749;48.022;10.922;2022-10-31T00:43:47;13.60;99.90
6664;DHT22;58749;48.022;10.922;2022-10-31T00:46:15;13.60;99.90
6664;DHT22;58749;48.022;10.922;2022-10-31T00:48:43;13.60;99.90
6664;DHT22;58749;48.022;10.922;2022-10-31T00:51:11;13.60;99.90
6664;DHT22;58749;48.022;10.922;2022-10-31T00:53:39;13.60;99.90
6664;DHT22;58749;48.022;10.922;2022-10-31T00:56:07;13.60;99.90
6664;DHT22;58749;48.022;10.922;2022-10-31T00:58:35;13.60;99.90
6664;DHT22;58749;48.022;10.922;2022-10-31T01:01:05;13.60;99.90
6664;DHT22;58749;48.022;10.922;2022-10-31T01:03:34;13.60;99.90
6664;DHT22;58749;48.022;10.922;2022-10-31T01:06:04;13.60;99.90
6664;DHT22;58749;48.022;10.922;2022-10-31T01:08:33;13.60;99.90
6664;DHT22;58749;48.022;10.922;2022-10-31T01:11:06;13.60;99.90
6664;DHT22;58749;48.022;10.922;2022-10-31T01:13:35;13.50;99.90
6664;DHT22;58749;48.022;10.922;2022-10-31T01:16:07;13.50;99.90
6664;DHT22;58749;48.022;10.922;2022-10-31T01:18:36;13.50;99.90
6664;DHT22;58749;48.022;10.922;2022-10-31T01:21:05;13.50;99.90
6664;DHT22;58749;48.022;10.922;2022-10-31T01:23:34;13.50;99.90
6664;DHT22;58749;48.022;10.922;2022-10-31T01:26:06;13.50;99.90
6664;DHT22;58749;48.022;10.922;2022-10-31T01:28:34;13.40;99.90
6664;DHT22;58749;48.022;10.922;2022-10-31T01:31:06;13.50;99.90
6664;DHT22;58749;48.022;10.922;2022-10-31T01:33:35;13.50;99.90
6664;DHT22;58749;48.022;10.922;2022-10-31T01:36:15;13.50;99.90
6664;DHT22;58749;48.022;10.922;2022-10-31T01:38:44;13.50;99.90
6664;DHT22;58749;48.022;10.922;2022-10-31T01:41:14;13.50;99.90
6664;DHT22;58749;48.022;10.922;2022-10-31T01:43:48;13.50;99.90
6664;DHT22;58749;48.022;10.922;2022-10-31T01:46:22;13.50;99.90
6664;DHT22;58749;48.022;10.922;2022-10-31T01:48:51;13.50;99.90
6664;DHT22;58749;48.022;10.922;2022-10-31T01:51:22;13.50;99.90
6664;DHT22;58749;48.022;10.922;2022-10-31T01:53:52;13.50;99.90
6664;DHT22;58749;48.022;10.922;2022-10-31T01:56:22;13.50;99.90
6664;DHT22;58749;48.022;10.922;2022-10-31T01:58:50;13.50;99.90
6664;DHT22;58749;48.022;10.922;2022-10-31T02:01:20;13.50;99.90
6664;DHT22;58749;48.022;10.922;2022-10-31T02:03:49;13.50;99.90
6664;DHT22;58749;48.022;10.922;2022-10-31T02:06:27;13.50;99.90
6664;DHT22;58749;48.022;10.922;2022-10-31T02:08:59;13.50;99.90
6664;DHT22;58749;48.022;10.922;2022-10-31T02:11:28;13.40;99.90
6664;DHT22;58749;48.022;10.922;2022-10-31T02:13:58;13.40;99.90
6664;DHT22;58749;48.022;10.922;2022-10-31T02:16:29;13.30;99.90
6664;DHT22;58749;48.022;10.922;2022-10-31T02:18:57;13.30;99.90
6664;DHT22;58749;48.022;10.922;2022-10-31T02:21:32;13.30;99.90
6664;DHT22;58749;48.022;10.922;2022-10-31T02:24:28;13.30;99.90
6664;DHT22;58749;48.022;10.922;2022-10-31T02:30:03;13.20;99.90
6664;DHT22;58749;48.022;10.922;2022-10-31T02:32:55;13.20;99.90
6664;DHT22;58749;48.022;10.922;2022-10-31T02:35:42;13.20;99.90
6664;DHT22;58749;48.022;10.922;2022-10-31T02:38:23;13.10;99.90
6664;DHT22;58749;48.022;10.922;2022-10-31T02:40:59;13.00;99.90
6664;DHT22;58749;48.022;10.922;2022-10-31T02:43:36;12.90;99.90
6664;DHT22;58749;48.022;10.922;2022-10-31T02:46:11;12.80;99.90
6664;DHT22;58749;48.022;10.922;2022-10-31T02:48:44;12.80;99.90
6664;DHT22;58749;48.022;10.922;2022-10-31T02:51:13;12.80;99.90
6664;DHT22;58749;48.022;10.922;2022-10-31T02:53:42;12.80;99.90
6664;DHT22;58749;48.022;10.922;2022-10-31T02:56:12;12.90;99.90
6664;DHT22;58749;48.022;10.922;2022-10-31T02:58:44;12.80;99.90
6664;DHT22;58749;48.022;10.922;2022-10-31T03:01:22;12.80;99.90
6664;DHT22;58749;48.022;10.922;2022-10-31T03:04:23;12.80;99.90
6664;DHT22;58749;48.022;10.922;2022-10-31T03:06:58;12.70;99.90
6664;DHT22;58749;48.022;10.922;2022-10-31T03:09:33;12.80;99.90
6664;DHT22;58749;48.022;10.922;2022-10-31T03:12:07;12.80;99.90
6664;DHT22;58749;48.022;10.922;2022-10-31T03:14:40;12.80;99.90
6664;DHT22;58749;48.022;10.922;2022-10-31T03:17:13;12.80;99.90
6664;DHT22;58749;48.022;10.922;2022-10-31T03:19:46;12.80;99.90
6664;DHT22;58749;48.022;10.922;2022-10-31T03:22:17;12.80;99.90
6664;DHT22;58749;48.022;10.922;2022-10-31T03:24:48;12.80;99.90
6664;DHT22;58749;48.022;10.922;2022-10-31T03:27:19;12.80;99.90
6664;DHT22;58749;48.022;10.922;2022-10-31T03:29:49;12.80;99.90
6664;DHT22;58749;48.022;10.922;2022-10-31T03:32:20;12.80;99.90
6664;DHT22;58749;48.022;10.922;2022-10-31T03:34:53;12.80;99.90
6664;DHT22;58749;48.022;10.922;2022-10-31T03:37:25;12.80;99.90
6664;DHT22;58749;48.022;10.922;2022-10-31T03:39:56;12.80;99.90
6664;DHT22;58749;48.022;10.922;2022-10-31T03:42:28;12.80;99.90
6664;DHT22;58749;48.022;10.922;2022-10-31T03:45:00;12.80;99.90
6664;DHT22;58749;48.022;10.922;2022-10-31T03:47:29;12.70;99.90
6664;DHT22;58749;48.022;10.922;2022-10-31T03:49:58;12.60;99.90
6664;DHT22;58749;48.022;10.922;2022-10-31T03:52:30;12.60;99.90
6664;DHT22;58749;48.022;10.922;2022-10-31T03:55:05;12.50;99.90
6664;DHT22;58749;48.022;10.922;2022-10-31T03:57:39;12.60;99.90
6664;DHT22;58749;48.022;10.922;2022-10-31T04:00:10;12.50;99.90
6664;DHT22;58749;48.022;10.922;2022-10-31T04:02:40;12.50;99.90
6664;DHT22;58749;48.022;10.922;2022-10-31T04:05:13;12.40;99.90
6664;DHT22;58749;48.022;10.922;2022-10-31T04:07:43;12.40;99.90
6664;DHT22;58749;48.022;10.922;2022-10-31T04:10:14;12.30;99.90
6664;DHT22;58749;48.022;10.922;2022-10-31T04:12:48;12.30;99.90
6664;DHT22;58749;48.022;10.922;2022-10-31T04:15:18;12.30;99.90
6664;DHT22;58749;48.022;10.922;2022-10-31T04:17:47;12.40;99.90
6664;DHT22;58749;48.022;10.922;2022-10-31T04:20:29;12.40;99.90
6664;DHT22;58749;48.022;10.922;2022-10-31T04:22:58;12.40;99.90
6664;DHT22;58749;48.022;10.922;2022-10-31T04:25:26;12.40;99.90
6664;DHT22;58749;48.022;10.922;2022-10-31T04:27:54;12.40;99.90
6664;DHT22;58749;48.022;10.922;2022-10-31T04:30:23;12.40;99.90
6664;DHT22;58749;48.022;10.922;2022-10-31T04:32:51;12.40;99.90
6664;DHT22;58749;48.022;10.922;2022-10-31T04:35:20;12.30;99.90
6664;DHT22;58749;48.022;10.922;2022-10-31T04:37:49;12.30;99.90
6664;DHT22;58749;48.022;10.922;2022-10-31T04:40:17;12.30;99.90
6664;DHT22;58749;48.022;10.922;2022-10-31T04:42:45;12.30;99.90
6664;DHT22;58749;48.022;10.922;2022-10-31T04:45:13;12.40;99.90
6664;DHT22;58749;48.022;10.922;2022-10-31T04:47:46;12.40;99.90
6664;DHT22;58749;48.022;10.922;2022-10-31T04:50:15;12.40;99.90
6664;DHT22;58749;48.022;10.922;2022-10-31T04:52:45;12.40;99.90
6664;DHT22;58749;48.022;10.922;2022-10-31T04:55:14;12.40;99.90
6664;DHT22;58749;48.022;10.922;2022-10-31T04:57:42;12.40;99.90
6664;DHT22;58749;48.022;10.922;2022-10-31T05:00:12;12.40;99.90
6664;DHT22;58749;48.022;10.922;2022-10-31T05:02:44;12.40;99.90
6664;DHT22;58749;48.022;10.922;2022-10-31T05:05:13;12.40;99.90
6664;DHT22;58749;48.022;10.922;2022-10-31T05:07:42;12.40;99.90
6664;DHT22;58749;48.022;10.922;2022-10-31T05:10:14;12.30;99.90
6664;DHT22;58749;48.022;10.922;2022-10-31T05:12:46;12.30;99.90
6664;DHT22;58749;48.022;10.922;2022-10-31T05:15:14;12.30;99.90
6664;DHT22;58749;48.022;10.922;2022-10-31T05:17:43;12.30;99.90
6664;DHT22;58749;48.022;10.922;2022-10-31T05:20:12;12.30;99.90
6664;DHT22;58749;48.022;10.922;2022-10-31T05:22:42;12.30;99.90
6664;DHT22;58749;48.022;10.922;2022-10-31T05:25:12;12.20;99.90
6664;DHT22;58749;48.022;10.922;2022-10-31T05:27:41;12.20;99.90
6664;DHT22;58749;48.022;10.922;2022-10-31T05:30:11;12.20;99.90
6664;DHT22;58749;48.022;10.922;2022-10-31T05:32:42;12.20;99.90
6664;DHT22;58749;48.022;10.922;2022-10-31T05:35:12;12.20;99.90
6664;DHT22;58749;48.022;10.922;2022-10-31T05:37:40;12.20;99.90
6664;DHT22;58749;48.022;10.922;2022-10-31T05:40:12;12.20;99.90
6664;DHT22;58749;48.022;10.922;2022-10-31T05:42:41;12.20;99.90
6664;DHT22;58749;48.022;10.922;2022-10-31T05:45:11;12.10;99.90
6664;DHT22;58749;48.022;10.922;2022-10-31T05:47:39;12.10;99.90
6664;DHT22;58749;48.022;10.922;2022-10-31T05:50:08;12.10;99.90
6664;DHT22;58749;48.022;10.922;2022-10-31T05:52:36;12.10;99.90
6664;DHT22;58749;48.022;10.922;2022-10-31T05:55:05;12.10;99.90
6664;DHT22;58749;48.022;10.922;2022-10-31T05:57:35;12.10;99.90
6664;DHT22;58749;48.022;10.922;2022-10-31T06:00:04;12.10;99.90
6664;DHT22;58749;48.022;10.922;2022-10-31T06:02:34;12.10;99.90
6664;DHT22;58749;48.022;10.922;2022-10-31T06:05:03;12.10;99.90
6664;DHT22;58749;48.022;10.922;2022-10-31T06:07:32;12.10;99.90
6664;DHT22;58749;48.022;10.922;2022-10-31T06:10:04;12.00;99.90
6664;DHT22;58749;48.022;10.922;2022-10-31T06:12:35;12.00;99.90
6664;DHT22;58749;48.022;10.922;2022-10-31T06:15:05;12.00;99.90
6664;DHT22;58749;48.022;10.922;2022-10-31T06:17:34;12.00;99.90
6664;DHT22;58749;48.022;10.922;2022-10-31T06:20:03;12.00;99.90
6664;DHT22;58749;48.022;10.922;2022-10-31T06:22:32;12.00;99.90
6664;DHT22;58749;48.022;10.922;2022-10-31T06:25:00;12.00;99.90
6664;DHT22;58749;48.022;10.922;2022-10-31T06:27:28;12.00;99.90
6664;DHT22;58749;48.022;10.922;2022-10-31T06:29:58;12.00;99.90
6664;DHT22;58749;48.022;10.922;2022-10-31T06:32:26;12.00;99.90
6664;DHT22;58749;48.022;10.922;2022-10-31T06:34:54;12.00;99.90
6664;DHT22;58749;48.022;10.922;2022-10-31T06:37:22;12.10;99.90
6664;DHT22;58749;48.022;10.922;2022-10-31T06:39:50;12.10;99.90
6664;DHT22;58749;48.022;10.922;2022-10-31T06:42:18;12.10;99.90
6664;DHT22;58749;48.022;10.922;2022-10-31T06:44:47;12.10;99.90
6664;DHT22;58749;48.022;10.922;2022-10-31T06:47:16;12.10;99.90
6664;DHT22;58749;48.022;10.922;2022-10-31T06:49:44;12.10;99.90
6664;DHT22;58749;48.022;10.922;2022-10-31T06:52:12;12.10;99.90
6664;DHT22;58749;48.022;10.922;2022-10-31T06:54:40;12.10;99.90
6664;DHT22;58749;48.022;10.922;2022-10-31T06:57:08;12.10;99.90
6664;DHT22;58749;48.022;10.922;2022-10-31T06:59:36;12.20;99.90
6664;DHT22;58749;48.022;10.922;2022-10-31T07:02:05;12.20;99.90
6664;DHT22;58749;48.022;10.922;2022-10-31T07:04:34;12.20;99.90
6664;DHT22;58749;48.022;10.922;2022-10-31T07:07:03;12.20;99.90
6664;DHT22;58749;48.022;10.922;2022-10-31T07:09:31;12.20;99.90
6664;DHT22;58749;48.022;10.922;2022-10-31T07:11:59;12.30;99.90
6664;DHT22;58749;48.022;10.922;2022-10-31T07:14:27;12.30;99.90
6664;DHT22;58749;48.022;10.922;2022-10-31T07:16:55;12.30;99.90
6664;DHT22;58749;48.022;10.922;2022-10-31T07:19:23;12.30;99.90
6664;DHT22;58749;48.022;10.922;2022-10-31T07:21:52;12.30;99.90
6664;DHT22;58749;48.022;10.922;2022-10-31T07:24:26;12.30;99.90
6664;DHT22;58749;48.022;10.922;2022-10-31T07:26:54;12.30;99.90
6664;DHT22;58749;48.022;10.922;2022-10-31T07:29:23;12.30;99.90
6664;DHT22;58749;48.022;10.922;2022-10-31T07:31:51;12.30;99.90
6664;DHT22;58749;48.022;10.922;2022-10-31T07:34:19;12.40;99.90
6664;DHT22;58749;48.022;10.922;2022-10-31T07:36:47;12.40;99.90
6664;DHT22;58749;48.022;10.922;2022-10-31T07:39:16;12.40;99.90
6664;DHT22;58749;48.022;10.922;2022-10-31T07:41:44;12.40;99.90
6664;DHT22;58749;48.022;10.922;2022-10-31T07:44:13;12.40;99.90
6664;DHT22;58749;48.022;10.922;2022-10-31T07:46:41;12.50;99.90
6664;DHT22;58749;48.022;10.922;2022-10-31T07:49:09;12.60;99.90
6664;DHT22;58749;48.022;10.922;2022-10-31T07:51:37;12.60;99.90
6664;DHT22;58749;48.022;10.922;2022-10-31T07:54:11;12.70;99.90
6664;DHT22;58749;48.022;10.922;2022-10-31T07:56:40;12.70;99.90
6664;DHT22;58749;48.022;10.922;2022-10-31T07:59:08;12.70;99.90
6664;DHT22;58749;48.022;10.922;2022-10-31T08:01:36;12.80;99.90
6664;DHT22;58749;48.022;10.922;2022-10-31T08:04:04;12.80;99.90
6664;DHT22;58749;48.022;10.922;2022-10-31T08:06:32;12.90;99.90
6664;DHT22;58749;48.022;10.922;2022-10-31T08:09:00;13.00;99.90
6664;DHT22;58749;48.022;10.922;2022-10-31T08:11:29;13.10;99.90
6664;DHT22;58749;48.022;10.922;2022-10-31T08:13:58;13.20;99.90
6664;DHT22;58749;48.022;10.922;2022-10-31T08:16:26;13.30;99.90
6664;DHT22;58749;48.022;10.922;2022-10-31T08:18:54;13.40;99.90
6664;DHT22;58749;48.022;10.922;2022-10-31T08:21:23;13.50;99.90
6664;DHT22;58749;48.022;10.922;2022-10-31T08:23:57;13.70;99.90
6664;DHT22;58749;48.022;10.922;2022-10-31T08:26:25;13.80;99.90
6664;DHT22;58749;48.022;10.922;2022-10-31T08:28:53;13.90;99.90
6664;DHT22;58749;48.022;10.922;2022-10-31T08:31:22;14.00;99.90
6664;DHT22;58749;48.022;10.922;2022-10-31T08:33:59;14.10;99.90
6664;DHT22;58749;48.022;10.922;2022-10-31T08:36:28;14.20;99.90
6664;DHT22;58749;48.022;10.922;2022-10-31T08:38:56;14.20;99.90
6664;DHT22;58749;48.022;10.922;2022-10-31T08:41:27;14.30;99.90
6664;DHT22;58749;48.022;10.922;2022-10-31T08:43:55;14.30;99.90
6664;DHT22;58749;48.022;10.922;2022-10-31T08:46:25;14.40;99.90
6664;DHT22;58749;48.022;10.922;2022-10-31T08:48:53;14.50;99.90
6664;DHT22;58749;48.022;10.922;2022-10-31T08:51:21;14.50;99.90
6664;DHT22;58749;48.022;10.922;2022-10-31T08:53:49;14.60;99.90
6664;DHT22;58749;48.022;10.922;2022-10-31T08:56:17;14.60;99.90
6664;DHT22;58749;48.022;10.922;2022-10-31T08:58:45;14.70;99.90
6664;DHT22;58749;48.022;10.922;2022-10-31T09:01:13;14.70;99.90
6664;DHT22;58749;48.022;10.922;2022-10-31T09:03:43;14.80;99.90
6664;DHT22;58749;48.022;10.922;2022-10-31T09:06:11;14.80;99.90
6664;DHT22;58749;48.022;10.922;2022-10-31T09:08:39;14.90;99.90
6664;DHT22;58749;48.022;10.922;2022-10-31T09:11:07;14.90;99.90
6664;DHT22;58749;48.022;10.922;2022-10-31T09:13:35;15.00;99.90
6664;DHT22;58749;48.022;10.922;2022-10-31T09:16:07;15.10;99.90
6664;DHT22;58749;48.022;10.922;2022-10-31T09:18:35;15.10;99.90
6664;DHT22;58749;48.022;10.922;2022-10-31T09:21:05;15.20;99.90
6664;DHT22;58749;48.022;10.922;2022-10-31T09:23:33;15.20;99.90
6664;DHT22;58749;48.022;10.922;2022-10-31T09:26:01;15.30;99.90
6664;DHT22;58749;48.022;10.922;2022-10-31T09:28:30;15.30;99.90
6664;DHT22;58749;48.022;10.922;2022-10-31T09:30:58;15.40;99.90
6664;DHT22;58749;48.022;10.922;2022-10-31T09:33:27;15.40;99.90
6664;DHT22;58749;48.022;10.922;2022-10-31T09:35:55;15.50;99.90
6664;DHT22;58749;48.022;10.922;2022-10-31T09:38:24;15.50;99.90
6664;DHT22;58749;48.022;10.922;2022-10-31T09:40:55;15.60;99.90
6664;DHT22;58749;48.022;10.922;2022-10-31T09:43:32;15.70;99.90
6664;DHT22;58749;48.022;10.922;2022-10-31T09:46:08;15.70;99.90
6664;DHT22;58749;48.022;10.922;2022-10-31T09:48:59;15.70;99.90
6664;DHT22;58749;48.022;10.922;2022-10-31T09:51:34;15.80;99.90
6664;DHT22;58749;48.022;10.922;2022-10-31T09:54:08;15.90;99.90
6664;DHT22;58749;48.022;10.922;2022-10-31T09:56:38;15.90;99.90
6664;DHT22;58749;48.022;10.922;2022-10-31T09:59:12;15.90;99.90
6664;DHT22;58749;48.022;10.922;2022-10-31T10:01:48;15.90;99.90
6664;DHT22;58749;48.022;10.922;2022-10-31T10:04:33;16.00;99.90
6664;DHT22;58749;48.022;10.922;2022-10-31T10:07:06;16.00;99.90
6664;DHT22;58749;48.022;10.922;2022-10-31T10:09:37;16.10;99.90
6664;DHT22;58749;48.022;10.922;2022-10-31T10:12:14;16.10;99.90
6664;DHT22;58749;48.022;10.922;2022-10-31T10:15:07;16.20;99.90
6664;DHT22;58749;48.022;10.922;2022-10-31T10:17:56;16.20;99.90
6664;DHT22;58749;48.022;10.922;2022-10-31T10:20:31;16.20;99.90
6664;DHT22;58749;48.022;10.922;2022-10-31T10:23:22;16.20;99.90
6664;DHT22;58749;48.022;10.922;2022-10-31T10:25:57;16.30;99.90
6664;DHT22;58749;48.022;10.922;2022-10-31T10:28:38;16.40;99.90
6664;DHT22;58749;48.022;10.922;2022-10-31T10:31:11;16.50;99.90
6664;DHT22;58749;48.022;10.922;2022-10-31T10:33:53;16.50;99.90
6664;DHT22;58749;48.022;10.922;2022-10-31T10:36:35;16.70;99.90
6664;DHT22;58749;48.022;10.922;2022-10-31T10:39:10;16.80;99.90
6664;DHT22;58749;48.022;10.922;2022-10-31T10:41:44;17.00;99.90
6664;DHT22;58749;48.022;10.922;2022-10-31T10:44:13;17.10;99.90
6664;DHT22;58749;48.022;10.922;2022-10-31T10:46:43;17.10;99.90
6664;DHT22;58749;48.022;10.922;2022-10-31T10:49:34;17.20;99.90
6664;DHT22;58749;48.022;10.922;2022-10-31T10:52:13;17.20;99.90
6664;DHT22;58749;48.022;10.922;2022-10-31T10:55:09;17.30;99.90
6664;DHT22;58749;48.022;10.922;2022-10-31T10:57:53;17.30;99.90
6664;DHT22;58749;48.022;10.922;2022-10-31T11:00:25;17.40;99.90
6664;DHT22;58749;48.022;10.922;2022-10-31T11:02:54;17.40;99.90
6664;DHT22;58749;48.022;10.922;2022-10-31T11:05:26;17.50;99.90
6664;DHT22;58749;48.022;10.922;2022-10-31T11:07:56;17.60;99.90
6664;DHT22;58749;48.022;10.922;2022-10-31T11:10:24;17.60;99.90
6664;DHT22;58749;48.022;10.922;2022-10-31T11:13:17;17.60;99.90
6664;DHT22;58749;48.022;10.922;2022-10-31T11:15:55;17.60;99.90
6664;DHT22;58749;48.022;10.922;2022-10-31T11:18:25;17.60;99.90
6664;DHT22;58749;48.022;10.922;2022-10-31T11:20:56;17.70;99.90
6664;DHT22;58749;48.022;10.922;2022-10-31T11:23:26;17.70;99.90
6664;DHT22;58749;48.022;10.922;2022-10-31T11:25:56;17.80;99.90
6664;DHT22;58749;48.022;10.922;2022-10-31T11:28:27;17.70;99.90
6664;DHT22;58749;48.022;10.922;2022-10-31T11:30:59;17.80;99.90
6664;DHT22;58749;48.022;10.922;2022-10-31T11:33:31;17.80;99.90
6664;DHT22;58749;48.022;10.922;2022-10-31T11:36:01;17.90;99.90
6664;DHT22;58749;48.022;10.922;2022-10-31T11:38:34;17.90;99.90
6664;DHT22;58749;48.022;10.922;2022-10-31T11:41:11;17.90;99.90
6664;DHT22;58749;48.022;10.922;2022-10-31T11:43:48;18.00;99.90
6664;DHT22;58749;48.022;10.922;2022-10-31T11:46:20;18.10;99.90
6664;DHT22;58749;48.022;10.922;2022-10-31T11:48:53;18.10;99.90
6664;DHT22;58749;48.022;10.922;2022-10-31T11:51:23;18.20;99.90
6664;DHT22;58749;48.022;10.922;2022-10-31T11:53:54;18.30;99.90
6664;DHT22;58749;48.022;10.922;2022-10-31T11:56:37;18.50;99.90
6664;DHT22;58749;48.022;10.922;2022-10-31T11:59:24;18.60;99.90
6664;DHT22;58749;48.022;10.922;2022-10-31T12:01:54;18.60;99.90
6664;DHT22;58749;48.022;10.922;2022-10-31T12:04:32;18.70;99.90
6664;DHT22;58749;48.022;10.922;2022-10-31T12:07:03;18.70;99.90
6664;DHT22;58749;48.022;10.922;2022-10-31T12:09:33;18.70;99.90
6664;DHT22;58749;48.022;10.922;2022-10-31T12:12:35;18.70;99.90
6664;DHT22;58749;48.022;10.922;2022-10-31T12:15:22;18.70;99.90
6664;DHT22;58749;48.022;10.922;2022-10-31T12:18:08;18.70;99.90
6664;DHT22;58749;48.022;10.922;2022-10-31T12:20:46;18.70;99.90
6664;DHT22;58749;48.022;10.922;2022-10-31T12:23:21;18.60;99.90
6664;DHT22;58749;48.022;10.922;2022-10-31T12:26:09;18.60;99.90
6664;DHT22;58749;48.022;10.922;2022-10-31T12:28:56;18.60;99.90
6664;DHT22;58749;48.022;10.922;2022-10-31T12:31:45;18.50;99.90
6664;DHT22;58749;48.022;10.922;2022-10-31T12:34:34;18.40;99.90
6664;DHT22;58749;48.022;10.922;2022-10-31T12:37:09;18.40;99.90
6664;DHT22;58749;48.022;10.922;2022-10-31T12:39:47;18.40;99.90
6664;DHT22;58749;48.022;10.922;2022-10-31T12:42:27;18.40;99.90
6664;DHT22;58749;48.022;10.922;2022-10-31T12:45:12;18.40;99.90
6664;DHT22;58749;48.022;10.922;2022-10-31T12:48:04;18.30;99.90
6664;DHT22;58749;48.022;10.922;2022-10-31T12:50:51;18.30;99.90
6664;DHT22;58749;48.022;10.922;2022-10-31T12:53:31;18.30;99.90
6664;DHT22;58749;48.022;10.922;2022-10-31T12:56:12;18.30;99.90
6664;DHT22;58749;48.022;10.922;2022-10-31T12:58:47;18.20;99.90
6664;DHT22;58749;48.022;10.922;2022-10-31T13:01:23;18.20;99.90
6664;DHT22;58749;48.022;10.922;2022-10-31T13:04:00;18.20;99.90
6664;DHT22;58749;48.022;10.922;2022-10-31T13:06:33;18.10;99.90
6664;DHT22;58749;48.022;10.922;2022-10-31T13:09:13;18.10;99.90
6664;DHT22;58749;48.022;10.922;2022-10-31T13:11:46;18.10;99.90
6664;DHT22;58749;48.022;10.922;2022-10-31T13:14:18;18.10;99.90
6664;DHT22;58749;48.022;10.922;2022-10-31T13:16:50;18.20;99.90
6664;DHT22;58749;48.022;10.922;2022-10-31T13:19:23;18.20;99.90
6664;DHT22;58749;48.022;10.922;2022-10-31T13:21:58;18.40;99.90
6664;DHT22;58749;48.022;10.922;2022-10-31T13:24:35;18.50;99.90
6664;DHT22;58749;48.022;10.922;2022-10-31T13:27:12;18.60;99.90
6664;DHT22;58749;48.022;10.922;2022-10-31T13:29:56;18.70;99.90
6664;DHT22;58749;48.022;10.922;2022-10-31T13:32:26;18.80;99.90
6664;DHT22;58749;48.022;10.922;2022-10-31T13:34:58;18.90;99.90
6664;DHT22;58749;48.022;10.922;2022-10-31T13:37:32;19.00;99.90
6664;DHT22;58749;48.022;10.922;2022-10-31T13:40:12;19.00;99.90
6664;DHT22;58749;48.022;10.922;2022-10-31T13:42:52;19.00;99.90
6664;DHT22;58749;48.022;10.922;2022-10-31T13:45:22;19.00;99.90
6664;DHT22;58749;48.022;10.922;2022-10-31T13:47:58;18.90;99.90
6664;DHT22;58749;48.022;10.922;2022-10-31T13:50:30;18.90;99.90
6664;DHT22;58749;48.022;10.922;2022-10-31T13:53:20;18.80;99.90
6664;DHT22;58749;48.022;10.922;2022-10-31T13:55:50;18.70;99.90
6664;DHT22;58749;48.022;10.922;2022-10-31T13:58:30;18.70;99.90
6664;DHT22;58749;48.022;10.922;2022-10-31T14:01:09;18.60;99.90
6664;DHT22;58749;48.022;10.922;2022-10-31T14:03:42;18.60;99.90
6664;DHT22;58749;48.022;10.922;2022-10-31T14:06:40;18.60;99.90
6664;DHT22;58749;48.022;10.922;2022-10-31T14:09:20;18.60;99.90
6664;DHT22;58749;48.022;10.922;2022-10-31T14:11:50;18.60;99.90
6664;DHT22;58749;48.022;10.922;2022-10-31T14:14:19;18.60;99.90
6664;DHT22;58749;48.022;10.922;2022-10-31T14:16:54;18.60;99.90
6664;DHT22;58749;48.022;10.922;2022-10-31T14:19:23;18.60;99.90
6664;DHT22;58749;48.022;10.922;2022-10-31T14:21:53;18.60;99.90
6664;DHT22;58749;48.022;10.922;2022-10-31T14:24:34;18.60;99.90
6664;DHT22;58749;48.022;10.922;2022-10-31T14:27:04;18.60;99.90
6664;DHT22;58749;48.022;10.922;2022-10-31T14:29:34;18.50;99.90
6664;DHT22;58749;48.022;10.922;2022-10-31T14:32:06;18.50;99.90
6664;DHT22;58749;48.022;10.922;2022-10-31T14:34:41;18.40;99.90
6664;DHT22;58749;48.022;10.922;2022-10-31T14:40:24;18.30;99.90
6664;DHT22;58749;48.022;10.922;2022-10-31T14:43:16;18.20;99.90
6664;DHT22;58749;48.022;10.922;2022-10-31T14:45:57;18.10;99.90
6664;DHT22;58749;48.022;10.922;2022-10-31T14:48:54;18.10;99.90
6664;DHT22;58749;48.022;10.922;2022-10-31T14:51:40;18.00;99.90
6664;DHT22;58749;48.022;10.922;2022-10-31T14:54:15;18.00;99.90
6664;DHT22;58749;48.022;10.922;2022-10-31T14:56:49;18.00;99.90
6664;DHT22;58749;48.022;10.922;2022-10-31T14:59:23;17.90;99.90
6664;DHT22;58749;48.022;10.922;2022-10-31T15:01:56;17.90;99.90
6664;DHT22;58749;48.022;10.922;2022-10-31T15:04:28;17.80;99.90
6664;DHT22;58749;48.022;10.922;2022-10-31T15:07:00;17.80;99.90
6664;DHT22;58749;48.022;10.922;2022-10-31T15:09:33;17.80;99.90
6664;DHT22;58749;48.022;10.922;2022-10-31T15:12:22;17.80;99.90
6664;DHT22;58749;48.022;10.922;2022-10-31T15:14:51;17.80;99.90
6664;DHT22;58749;48.022;10.922;2022-10-31T15:17:20;17.80;99.90
6664;DHT22;58749;48.022;10.922;2022-10-31T15:19:48;17.70;99.90
6664;DHT22;58749;48.022;10.922;2022-10-31T15:22:19;17.70;99.90
6664;DHT22;58749;48.022;10.922;2022-10-31T15:24:49;17.60;99.90
6664;DHT22;58749;48.022;10.922;2022-10-31T15:27:23;17.50;99.90
6664;DHT22;58749;48.022;10.922;2022-10-31T15:29:53;17.50;99.90
6664;DHT22;58749;48.022;10.922;2022-10-31T15:32:23;17.50;99.90
6664;DHT22;58749;48.022;10.922;2022-10-31T15:34:52;17.50;99.90
6664;DHT22;58749;48.022;10.922;2022-10-31T15:37:21;17.40;99.90
6664;DHT22;58749;48.022;10.922;2022-10-31T15:39:53;17.30;99.90
6664;DHT22;58749;48.022;10.922;2022-10-31T15:42:23;17.20;99.90
6664;DHT22;58749;48.022;10.922;2022-10-31T15:44:55;17.10;99.90
6664;DHT22;58749;48.022;10.922;2022-10-31T15:47:24;17.10;99.90
6664;DHT22;58749;48.022;10.922;2022-10-31T15:49:53;17.00;99.90
6664;DHT22;58749;48.022;10.922;2022-10-31T15:52:28;16.90;99.90
6664;DHT22;58749;48.022;10.922;2022-10-31T15:55:01;16.80;99.90
6664;DHT22;58749;48.022;10.922;2022-10-31T15:57:30;16.70;99.90
6664;DHT22;58749;48.022;10.922;2022-10-31T15:59:58;16.60;99.90
6664;DHT22;58749;48.022;10.922;2022-10-31T16:02:27;16.60;99.90
6664;DHT22;58749;48.022;10.922;2022-10-31T16:04:57;16.50;99.90
6664;DHT22;58749;48.022;10.922;2022-10-31T16:07:26;16.40;99.90
6664;DHT22;58749;48.022;10.922;2022-10-31T16:09:58;16.30;99.90